Time;durP1;ratioP1;P1;durP2;ratioP2;P2;SDS_P1;SDS_P2;PMS_P1;PMS_P2;Temp;Humidity;BMP_temperature;BMP_pressure;BME280_temperature;BME280_humidity;BME280_pressure;Samples;Min_cycle;Max_cycle;Signal;HPM_P1;HPM_P2
2022/04/26 03:37:05;;;;;;;13.63;10.65;;;;;;;3.89;64.22;100715.03;5043905;28;20044;-26
2022/04/26 03:39:31;;;;;;;12.25;10.85;;;;;;;3.84;64.64;100714.94;5045942;28;20075;-26
2022/04/26 03:41:56;;;;;;;12.93;10.75;;;;;;;3.84;64.56;100714.09;5054285;28;20496;-26
2022/04/26 03:44:21;;;;;;;14.95;11.48;;;;;;;3.81;63.94;100725.31;5042618;28;20025;-26
2022/04/26 03:46:47;;;;;;;11.98;10.02;;;;;;;3.78;64.17;100719.19;5041675;28;20021;-26
2022/04/26 03:49:12;;;;;;;14.57;11.25;;;;;;;3.77;64.22;100722.66;5044189;28;20037;-26
2022/04/26 03:51:37;;;;;;;13.25;11.23;;;;;;;3.75;64.45;100732.16;5044635;28;20111;-26
2022/04/26 03:54:03;;;;;;;16.05;12.02;;;;;;;3.71;64.19;100734.69;5043807;28;20125;-26
2022/04/26 03:56:28;;;;;;;12.07;10.57;;;;;;;3.69;63.98;100735.53;5046520;28;20048;-26
2022/04/26 03:58:54;;;;;;;13.25;11.45;;;;;;;3.66;63.66;100736.34;5042195;28;20190;-26
2022/04/26 04:01:19;;;;;;;14.95;11.50;;;;;;;3.64;64.03;100735.44;5046160;28;20028;-26
2022/04/26 04:03:44;;;;;;;16.73;11.30;;;;;;;3.61;64.03;100740.59;5046146;28;20090;-26
2022/04/26 04:06:09;;;;;;;14.90;12.73;;;;;;;3.62;64.10;100744.06;5044431;28;20032;-26
2022/04/26 04:08:35;;;;;;;16.38;12.10;;;;;;;3.58;64.25;100736.19;5044640;28;20032;-26
2022/04/26 04:11:00;;;;;;;16.90;12.38;;;;;;;3.55;64.67;100737.84;5043393;28;20116;-26
2022/04/26 04:13:25;;;;;;;16.08;12.43;;;;;;;3.54;64.66;100734.34;5046639;28;20083;-26
2022/04/26 04:15:51;;;;;;;15.30;11.52;;;;;;;3.52;64.82;100741.28;5043448;28;20032;-26
2022/04/26 04:21:00;;;;;;;15.95;12.43;;;;;;;3.47;64.85;100741.19;5044376;28;20031;-26
2022/04/26 04:23:26;;;;;;;17.05;12.82;;;;;;;3.47;64.67;100746.38;5043150;28;20385;-26
2022/04/26 04:25:51;;;;;;;18.77;12.40;;;;;;;3.45;64.94;100742.00;5044739;28;20036;-26
2022/04/26 04:28:16;;;;;;;17.42;12.18;;;;;;;3.44;65.25;100738.50;5046440;28;20032;-26
2022/04/26 04:30:42;;;;;;;15.90;12.55;;;;;;;3.42;64.86;100748.03;5046173;28;20384;-26
2022/04/26 04:33:07;;;;;;;14.65;12.02;;;;;;;3.41;65.09;100748.88;5044575;28;20021;-26
2022/04/26 04:35:33;;;;;;;16.15;12.10;;;;;;;3.40;65.24;100756.66;5045284;28;20040;-26
2022/04/26 04:37:58;;;;;;;16.10;12.27;;;;;;;3.40;65.08;100762.75;5044023;28;21348;-26
2022/04/26 04:40:23;;;;;;;15.57;12.73;;;;;;;3.39;64.87;100763.59;5043237;28;20041;-26
2022/04/26 04:42:48;;;;;;;13.13;11.13;;;;;;;3.37;65.04;100760.06;5045246;28;20032;-26
2022/04/26 04:45:14;;;;;;;16.83;11.57;;;;;;;3.37;65.51;100752.25;5046563;28;20083;-26
2022/04/26 04:47:39;;;;;;;11.52;10.20;;;;;;;3.38;65.75;100760.97;5040753;28;20025;-26
2022/04/26 04:50:05;;;;;;;13.40;10.60;;;;;;;3.37;65.45;100760.06;5046398;28;20044;-26
2022/04/26 04:52:30;;;;;;;14.75;11.40;;;;;;;3.36;65.34;100776.56;5042977;28;20043;-26
2022/04/26 04:54:56;;;;;;;13.02;10.65;;;;;;;3.38;65.62;100787.91;5042275;28;20481;-26
2022/04/26 04:57:21;;;;;;;13.48;11.38;;;;;;;3.38;65.31;100776.59;5046528;28;20512;-26
2022/04/26 04:59:46;;;;;;;13.80;11.35;;;;;;;3.37;65.42;100780.06;5045429;28;20159;-26
2022/04/26 05:02:12;;;;;;;12.95;10.73;;;;;;;3.38;65.45;100776.59;5048591;28;20044;-26
2022/04/26 05:04:39;;;;;;;14.55;10.43;;;;;;;3.39;65.36;100778.34;5044233;28;20402;-26
2022/04/26 05:07:04;;;;;;;14.45;11.65;;;;;;;3.40;65.88;100785.34;5043535;28;20031;-26
2022/04/26 05:09:30;;;;;;;15.05;10.93;;;;;;;3.40;65.70;100778.38;5039574;28;20021;-26
2022/04/26 05:11:55;;;;;;;13.88;10.55;;;;;;;3.41;65.83;100779.28;5043704;28;20079;-26
2022/04/26 05:14:20;;;;;;;12.30;10.00;;;;;;;3.40;65.55;100775.78;5042224;28;20032;-26
2022/04/26 05:16:46;;;;;;;12.48;10.98;;;;;;;3.42;65.81;100774.09;5046403;28;20070;-26
2022/04/26 05:19:11;;;;;;;12.93;10.73;;;;;;;3.42;65.97;100773.22;5042617;28;20397;-26
2022/04/26 05:21:37;;;;;;;13.07;11.40;;;;;;;3.43;65.74;100774.97;5045743;28;20057;-26
2022/04/26 05:26:46;;;;;;;15.00;11.00;;;;;;;3.45;65.79;100770.69;5047485;28;20064;-26
2022/04/26 05:29:11;;;;;;;12.85;10.93;;;;;;;3.47;65.85;100769.84;5044480;28;20492;-26
2022/04/26 05:31:37;;;;;;;13.27;10.68;;;;;;;3.47;65.48;100767.25;5046271;28;20024;-26
2022/04/26 05:34:02;;;;;;;15.10;11.15;;;;;;;3.51;65.84;100768.22;5048869;28;20102;-26
2022/04/26 05:36:27;;;;;;;14.15;11.77;;;;;;;3.53;65.81;100765.66;5048695;28;20154;-26
2022/04/26 05:38:53;;;;;;;14.73;11.63;;;;;;;3.55;65.82;100766.53;5045659;28;20055;-26
2022/04/26 05:41:18;;;;;;;14.85;11.70;;;;;;;3.57;66.27;100762.25;5049370;28;20496;-28
2022/04/26 05:43:43;;;;;;;16.17;11.63;;;;;;;3.60;66.43;100762.28;5047662;28;20580;-28
2022/04/26 05:46:12;;;;;;;14.63;11.45;;;;;;;3.63;66.30;100772.78;5047430;28;20499;-28
2022/04/26 05:48:40;;;;;;;14.05;11.30;;;;;;;3.66;66.51;100771.97;5047496;28;20461;-28
2022/04/26 05:51:05;;;;;;;14.15;11.43;;;;;;;3.69;66.61;100778.16;5032500;28;20055;-27
2022/04/26 05:53:30;;;;;;;15.55;12.23;;;;;;;3.74;66.91;100772.16;5049859;28;20064;-27
2022/04/26 05:55:56;;;;;;;15.00;11.75;;;;;;;3.78;66.97;100771.34;5053198;28;20068;-27
2022/04/26 05:58:21;;;;;;;15.60;12.00;;;;;;;3.84;66.60;100767.13;5033178;28;20071;-28
2022/04/26 06:00:47;;;;;;;14.45;11.25;;;;;;;3.91;66.70;100770.78;5048689;28;20021;-28
2022/04/26 06:03:12;;;;;;;14.27;12.00;;;;;;;3.95;67.28;100774.31;5047651;28;20796;-27
2022/04/26 06:05:38;;;;;;;14.85;12.07;;;;;;;4.03;67.79;100770.13;5050080;28;20033;-28
2022/04/26 06:08:04;;;;;;;18.13;13.00;;;;;;;4.07;68.20;100768.47;5050650;28;20546;-28
2022/04/26 06:10:30;;;;;;;17.55;12.85;;;;;;;4.14;67.62;100764.22;5051866;28;20077;-28
2022/04/26 06:12:55;;;;;;;15.75;13.15;;;;;;;4.20;67.10;100765.22;5050699;28;20021;-27
2022/04/26 06:15:21;;;;;;;20.25;13.88;;;;;;;4.27;68.34;100766.19;5051418;28;20040;-28
2022/04/26 06:17:46;;;;;;;17.45;13.38;;;;;;;4.32;68.50;100771.50;5046573;28;20075;-27
2022/04/26 06:20:12;;;;;;;14.85;11.77;;;;;;;4.39;67.43;100765.56;5050698;28;20021;-27
2022/04/26 06:22:37;;;;;;;17.80;13.25;;;;;;;4.50;67.90;100768.34;5049528;28;20622;-28
2022/04/26 06:25:03;;;;;;;15.18;11.68;;;;;;;4.56;67.91;100770.19;5049781;28;20529;-28
2022/04/26 06:27:28;;;;;;;17.73;12.95;;;;;;;4.64;67.63;100781.66;5031858;28;20019;-28
2022/04/26 06:29:54;;;;;;;14.60;11.40;;;;;;;4.71;67.47;100780.03;5049022;28;20029;-28
2022/04/26 06:32:19;;;;;;;16.40;12.93;;;;;;;4.80;67.41;100781.94;5047863;28;20025;-27
2022/04/26 06:34:45;;;;;;;18.08;13.00;;;;;;;4.87;67.66;100786.41;5048393;28;20028;-28
2022/04/26 06:37:12;;;;;;;18.70;13.60;;;;;;;4.96;67.05;100789.16;5048986;28;20123;-28
2022/04/26 06:39:38;;;;;;;16.60;13.65;;;;;;;5.03;67.05;100784.88;5045951;28;20501;-28
2022/04/26 06:42:03;;;;;;;16.88;13.15;;;;;;;5.14;66.58;100796.41;5047928;28;20349;-27
2022/04/26 06:44:28;;;;;;;18.77;13.80;;;;;;;5.23;66.85;100784.31;5048927;28;20021;-28
2022/04/26 06:46:54;;;;;;;18.10;13.70;;;;;;;5.31;66.28;100784.44;5046862;28;20491;-26
2022/04/26 06:49:19;;;;;;;18.27;12.57;;;;;;;5.42;66.53;100781.97;5045937;28;20075;-28
2022/04/26 06:51:44;;;;;;;16.92;12.60;;;;;;;5.52;66.88;100782.13;5044900;28;20025;-28
2022/04/26 06:54:11;;;;;;;20.40;15.88;;;;;;;5.66;69.99;100781.41;5048077;28;20098;-28
2022/04/26 06:56:36;;;;;;;21.05;15.77;;;;;;;5.74;67.92;100779.78;5050058;28;20674;-28
2022/04/26 06:59:02;;;;;;;22.38;15.60;;;;;;;5.86;67.82;100783.41;5051034;28;20028;-27
2022/04/26 07:01:28;;;;;;;24.17;15.57;;;;;;;5.99;67.98;100780.09;5047222;28;20020;-27
2022/04/26 07:03:53;;;;;;;20.30;15.25;;;;;;;6.11;68.16;100776.72;5043081;28;20064;-27
2022/04/26 07:06:18;;;;;;;18.65;15.40;;;;;;;6.23;68.14;100783.84;5048893;28;20503;-28
2022/04/26 07:08:44;;;;;;;24.67;16.58;;;;;;;6.38;69.29;100779.66;5046493;28;20029;-28
2022/04/26 07:11:09;;;;;;;24.27;17.83;;;;;;;6.53;70.69;100781.53;5045736;28;20033;-28
2022/04/26 07:13:34;;;;;;;26.58;18.05;;;;;;;6.66;70.20;100779.91;5045871;28;20032;-26
2022/04/26 07:16:00;;;;;;;26.10;18.70;;;;;;;6.79;70.41;100784.38;5046349;28;20048;-28
2022/04/26 07:18:26;;;;;;;25.17;19.15;;;;;;;6.97;72.35;100781.91;5048601;28;20017;-27
2022/04/26 07:20:51;;;;;;;27.60;19.75;;;;;;;7.09;70.85;100778.47;5045976;28;20036;-28
2022/04/26 07:23:17;;;;;;;30.00;19.98;;;;;;;7.24;73.10;100786.44;5046670;28;20083;-28
2022/04/26 07:25:42;;;;;;;28.38;20.65;;;;;;;7.37;73.20;100776.06;5048325;28;20032;-28
2022/04/26 07:28:07;;;;;;;31.38;21.73;;;;;;;7.53;73.00;100782.25;5049544;28;20021;-28
2022/04/26 07:30:36;;;;;;;30.42;21.35;;;;;;;7.69;72.88;100776.22;5046137;28;20036;-27
2022/04/26 07:35:47;;;;;;;34.10;21.75;;;;;;;8.04;74.30;100777.19;5047129;28;20031;-28
2022/04/26 07:38:12;;;;;;;31.17;22.23;;;;;;;8.19;74.14;100778.13;5043995;28;20037;-27
2022/04/26 07:40:37;;;;;;;33.38;23.50;;;;;;;8.36;73.56;100782.56;5048451;28;20397;-26
2022/04/26 07:43:04;;;;;;;36.83;22.92;;;;;;;8.48;73.13;100772.91;5049661;28;20146;-28
2022/04/26 07:45:30;;;;;;;37.90;25.48;;;;;;;8.67;74.77;100783.47;5049522;28;20017;-28
2022/04/26 07:47:56;;;;;;;35.33;23.88;;;;;;;8.82;73.94;100774.75;5042838;28;20021;-27
2022/04/26 07:50:21;;;;;;;35.58;24.77;;;;;;;8.99;74.48;100779.09;5047908;28;20036;-28
2022/04/26 07:52:46;;;;;;;36.10;24.02;;;;;;;9.16;75.37;100778.19;5048624;28;20025;-28
2022/04/26 07:55:12;;;;;;;36.85;24.70;;;;;;;9.30;74.33;100786.09;5047978;28;20075;-27
2022/04/26 07:57:39;;;;;;;38.30;26.67;;;;;;;9.48;74.96;100774.63;5047133;28;20029;-28
2022/04/26 08:00:05;;;;;;;33.72;24.73;;;;;;;9.65;74.97;100777.22;5044393;28;20071;-28
2022/04/26 08:02:30;;;;;;;37.03;25.63;;;;;;;9.81;74.65;100788.56;5046701;28;20044;-28
2022/04/26 08:05:01;;;;;;;38.22;26.13;;;;;;;10.01;75.42;100784.97;5043192;28;20106;-26
2022/04/26 08:07:26;;;;;;;35.28;25.35;;;;;;;10.18;74.49;100786.63;5050572;28;20024;-26
2022/04/26 08:09:52;;;;;;;36.58;24.75;;;;;;;10.32;73.99;100795.34;5050824;28;20116;-26
2022/04/26 08:12:17;;;;;;;37.45;25.90;;;;;;;10.50;75.04;100798.75;5046716;28;20029;-26
2022/04/26 08:14:42;;;;;;;35.50;24.65;;;;;;;10.65;74.54;100798.69;5047496;28;20028;-26
2022/04/26 08:17:07;;;;;;;31.05;23.52;;;;;;;10.78;73.34;100799.44;5047515;28;20738;-26
2022/04/26 08:19:33;;;;;;;35.55;25.00;;;;;;;10.94;73.46;100801.09;5046527;28;20025;-26
2022/04/26 08:21:59;;;;;;;31.27;24.02;;;;;;;11.09;74.04;100808.84;5046550;28;20040;-26
2022/04/26 08:27:30;;;;;;;36.20;23.67;;;;;;;11.48;74.43;100804.97;5047199;28;20083;-26
2022/04/26 08:29:56;;;;;;;33.92;23.23;;;;;;;11.63;74.05;100804.78;5044802;28;20028;-27
2022/04/26 08:32:26;;;;;;;33.10;24.00;;;;;;;11.79;74.10;100809.91;5048383;28;20029;-27
2022/04/26 08:34:53;;;;;;;29.25;23.70;;;;;;;11.98;75.00;100812.31;5048726;28;20031;-27
2022/04/26 08:37:18;;;;;;;31.73;23.25;;;;;;;12.13;75.01;100820.06;5049180;28;20072;-27
2022/04/26 08:39:44;;;;;;;33.58;23.95;;;;;;;12.29;74.33;100823.41;5048374;28;20060;-27
2022/04/26 08:42:09;;;;;;;30.85;23.00;;;;;;;12.41;73.69;100830.25;5047200;28;20469;-27
2022/04/26 08:44:35;;;;;;;30.25;22.42;;;;;;;12.58;74.33;100834.47;5041325;28;20016;-27
2022/04/26 08:52:45;;;;;;;30.02;22.02;;;;;;;13.14;74.23;100838.84;5040317;28;20101;-27
2022/04/26 08:55:10;;;;;;;26.88;21.70;;;;;;;13.30;74.39;100842.09;5043610;28;20112;-27
2022/04/26 08:57:36;;;;;;;29.20;22.17;;;;;;;13.41;73.67;100839.25;5043439;28;20158;-27
2022/04/26 09:00:05;;;;;;;27.20;21.08;;;;;;;13.60;74.07;100833.63;5047308;28;20408;-27
2022/04/26 09:02:30;;;;;;;28.00;19.90;;;;;;;13.73;73.86;100843.13;5045230;28;20037;-27
2022/04/26 09:05:01;;;;;;;27.30;21.67;;;;;;;13.89;73.61;100837.50;5040939;28;20070;-27
2022/04/26 09:07:33;;;;;;;25.75;19.80;;;;;;;14.02;72.38;100839.91;5046840;28;20017;-27
2022/04/26 09:10:08;;;;;;;25.35;18.58;;;;;;;14.21;73.59;100840.41;5042048;28;20123;-27
2022/04/26 09:13:09;;;;;;;23.98;19.55;;;;;;;14.37;72.50;100848.88;5040678;28;20021;-27
2022/04/26 09:15:43;;;;;;;25.40;19.40;;;;;;;14.57;73.30;100847.56;5026684;28;20033;-27
2022/04/26 09:18:13;;;;;;;22.02;17.40;;;;;;;14.68;72.20;100845.53;5043733;28;20025;-27
2022/04/26 09:20:38;;;;;;;24.33;18.33;;;;;;;14.86;71.88;100843.38;5047836;28;20021;-27
2022/04/26 09:23:14;;;;;;;23.58;17.27;;;;;;;14.99;71.55;100843.94;5043688;28;20021;-27
2022/04/26 09:25:39;;;;;;;20.63;17.10;;;;;;;15.13;71.52;100847.13;5048574;28;20017;-27
2022/04/26 09:28:06;;;;;;;20.58;17.00;;;;;;;15.27;71.72;100844.09;5016939;28;20493;-27
2022/04/26 09:30:31;;;;;;;19.35;15.55;;;;;;;15.38;70.05;100841.16;5049045;28;20025;-27
2022/04/26 09:32:58;;;;;;;21.08;15.43;;;;;;;15.58;71.09;100846.88;5037656;28;20037;-27
2022/04/26 09:35:28;;;;;;;19.98;16.42;;;;;;;15.67;68.89;100846.59;5039577;28;20029;-27
2022/04/26 09:37:53;;;;;;;19.50;15.30;;;;;;;15.78;66.18;100848.97;5040518;28;20025;-27
2022/04/26 09:40:20;;;;;;;17.65;13.90;;;;;;;15.92;67.92;100835.28;5040469;28;20504;-27
2022/04/26 09:42:48;;;;;;;16.35;13.50;;;;;;;16.00;64.25;100837.72;5044668;28;20108;-27
2022/04/26 09:45:15;;;;;;;16.88;13.45;;;;;;;16.13;65.30;100840.91;5040637;28;20025;-27
2022/04/26 09:47:41;;;;;;;13.40;11.75;;;;;;;16.28;66.81;100843.09;5040542;28;20017;-27
2022/04/26 09:50:11;;;;;;;13.15;11.55;;;;;;;16.35;61.97;100841.16;5053641;28;20464;-27
2022/04/26 09:52:37;;;;;;;13.03;10.60;;;;;;;16.48;62.87;100841.66;5054217;28;20025;-27
2022/04/26 09:55:07;;;;;;;11.95;10.10;;;;;;;16.55;61.66;100834.34;5053847;28;20275;-27
2022/04/26 09:57:33;;;;;;;11.43;10.00;;;;;;;16.64;60.53;100842.00;5041569;28;20028;-27
2022/04/26 10:00:00;;;;;;;12.55;10.23;;;;;;;16.77;61.50;100839.81;5049291;28;20030;-27
2022/04/26 10:02:33;;;;;;;9.98;8.50;;;;;;;16.82;57.95;100844.13;5048707;28;20071;-27
2022/04/26 10:05:07;;;;;;;8.75;7.47;;;;;;;16.91;57.82;100842.03;5046689;28;20013;-27
2022/04/26 10:07:43;;;;;;;8.35;7.07;;;;;;;16.99;56.26;100844.47;5044459;28;20425;-27
2022/04/26 10:10:09;;;;;;;9.45;7.97;;;;;;;17.13;58.22;100848.47;5046026;28;20108;-27
2022/04/26 10:12:35;;;;;;;7.70;7.00;;;;;;;17.24;58.92;100848.13;5048951;28;20111;-27
2022/04/26 10:15:01;;;;;;;11.07;7.82;;;;;;;17.34;60.05;100840.66;5045733;28;20715;-27
2022/04/26 10:17:28;;;;;;;7.88;6.90;;;;;;;17.42;58.01;100841.28;5045204;28;20086;-27
2022/04/26 10:19:53;;;;;;;7.35;6.63;;;;;;;17.50;56.77;100839.19;5048786;28;20472;-27
2022/04/26 10:22:54;;;;;;;6.85;6.15;;;;;;;17.57;55.38;100845.16;5051423;28;20086;-27
2022/04/26 10:25:21;;;;;;;7.72;6.93;;;;;;;17.62;54.35;100837.00;5049411;28;20078;-27
2022/04/26 10:28:26;;;;;;;6.13;5.53;;;;;;;17.68;53.47;100835.00;5048743;28;20147;-27
2022/04/26 10:30:56;;;;;;;7.43;5.82;;;;;;;17.76;54.60;100836.50;5047991;28;20017;-27
2022/04/26 10:33:38;;;;;;;5.93;5.35;;;;;;;17.79;53.39;100834.63;5048700;28;20025;-27
2022/04/26 10:36:35;;;;;;;6.60;5.90;;;;;;;17.89;53.78;100832.47;5047542;28;20657;-27
2022/04/26 10:39:07;;;;;;;7.57;6.32;;;;;;;17.97;54.58;100832.16;5046906;28;20519;-27
2022/04/26 10:41:37;;;;;;;8.80;6.28;;;;;;;18.03;53.96;100826.59;5048680;28;20033;-27
2022/04/26 10:44:21;;;;;;;7.60;6.70;;;;;;;18.07;54.19;100830.91;5049620;28;20017;-27
2022/04/26 10:46:51;;;;;;;6.70;6.00;;;;;;;18.15;53.29;100829.78;5050730;28;20024;-27
2022/04/26 10:49:23;;;;;;;7.32;6.07;;;;;;;18.26;53.90;100840.91;5047853;28;20028;-27
2022/04/26 10:51:51;;;;;;;9.13;7.05;;;;;;;18.33;53.94;100839.75;5049569;28;20036;-27
2022/04/26 10:54:45;;;;;;;7.30;6.35;;;;;;;18.42;54.16;100830.50;5049133;28;20598;-27
2022/04/26 10:57:15;;;;;;;6.82;6.10;;;;;;;18.49;53.69;100839.13;5048145;28;20059;-27
2022/04/26 10:59:44;;;;;;;7.90;6.50;;;;;;;18.56;53.74;100837.94;5048489;28;20067;-27
2022/04/26 11:02:13;;;;;;;6.88;5.85;;;;;;;18.62;53.04;100836.84;5048639;28;20021;-27
2022/04/26 11:04:38;;;;;;;7.75;6.25;;;;;;;18.69;53.16;100826.75;5048960;28;20492;-27
2022/04/26 11:07:15;;;;;;;6.93;6.22;;;;;;;18.79;53.17;100835.28;5047367;28;20033;-27
2022/04/26 11:09:53;;;;;;;6.93;6.30;;;;;;;18.85;53.68;100837.69;5049425;28;20048;-27
2022/04/26 11:12:20;;;;;;;7.20;6.50;;;;;;;18.92;53.44;100830.28;5048284;28;20432;-27
2022/04/26 11:14:47;;;;;;;7.07;5.90;;;;;;;18.96;52.33;100821.22;5049006;28;20029;-27
2022/04/26 11:17:14;;;;;;;7.30;6.60;;;;;;;19.00;51.91;100828.16;5049087;28;20028;-27
2022/04/26 11:19:47;;;;;;;8.50;6.05;;;;;;;19.07;51.54;100829.69;5048294;28;20016;-27
2022/04/26 11:22:13;;;;;;;7.75;6.45;;;;;;;19.13;51.96;100827.66;5048900;28;20487;-27
2022/04/26 11:30:10;;;;;;;8.77;6.35;;;;;;;19.33;51.32;100830.38;5047370;28;20149;-27
2022/04/26 11:32:43;;;;;;;8.35;6.35;;;;;;;19.38;51.30;100826.63;5048612;28;20037;-27
2022/04/26 11:35:13;;;;;;;6.95;6.15;;;;;;;19.42;51.08;100823.75;5048369;28;20052;-27
2022/04/26 11:37:45;;;;;;;5.88;5.35;;;;;;;19.48;51.03;100834.16;5048849;28;20021;-27
2022/04/26 11:40:12;;;;;;;8.00;5.57;;;;;;;19.54;50.59;100829.50;5048426;28;20484;-27
2022/04/26 11:42:37;;;;;;;8.23;6.55;;;;;;;19.58;50.40;100833.75;5047362;28;20047;-27
2022/04/26 11:45:05;;;;;;;6.88;5.85;;;;;;;19.61;50.36;100833.63;5045361;28;20025;-27
2022/04/26 11:47:51;;;;;;;6.00;5.50;;;;;;;19.61;49.85;100842.50;5047301;28;20020;-27
2022/04/26 11:50:27;;;;;;;6.70;5.90;;;;;;;19.61;49.29;100837.16;5047757;28;20025;-27
2022/04/26 11:52:59;;;;;;;9.55;7.50;;;;;;;19.61;48.70;100837.16;5048386;28;20507;-27
2022/04/26 11:55:29;;;;;;;6.93;6.05;;;;;;;19.64;48.28;100827.28;5048539;28;20028;-27
2022/04/26 11:58:14;;;;;;;6.90;6.28;;;;;;;19.69;48.71;100833.28;5047483;28;20025;-27
2022/04/26 12:01:02;;;;;;;7.55;6.13;;;;;;;19.70;48.82;100838.56;5047581;28;20527;-27
2022/04/26 12:03:38;;;;;;;7.05;5.75;;;;;;;19.73;48.90;100826.84;5048733;28;20037;-27
2022/04/26 12:06:05;;;;;;;6.75;6.05;;;;;;;19.77;49.33;100822.25;5063510;28;20033;-27
2022/04/26 12:08:45;;;;;;;7.30;6.50;;;;;;;19.76;49.59;100826.72;5047463;28;20021;-27
2022/04/26 12:11:21;;;;;;;7.25;6.53;;;;;;;19.78;49.23;100838.22;5046957;28;20036;-27
2022/04/26 12:14:14;;;;;;;8.15;6.95;;;;;;;19.78;48.91;100834.66;5046889;28;20045;-27
2022/04/26 12:16:43;;;;;;;7.75;7.00;;;;;;;19.83;49.07;100833.53;5048279;28;20017;-27
2022/04/26 12:19:09;;;;;;;8.13;7.32;;;;;;;19.82;49.17;100829.13;5046731;28;20033;-27
2022/04/26 12:21:52;;;;;;;10.55;7.25;;;;;;;19.88;49.48;100823.47;5047405;28;20056;-27
2022/04/26 12:24:31;;;;;;;9.32;7.30;;;;;;;19.92;49.21;100823.31;5046228;28;20055;-27
2022/04/26 12:26:59;;;;;;;7.65;6.95;;;;;;;19.94;49.23;100829.50;5061951;28;20083;-27
2022/04/26 12:29:39;;;;;;;8.73;7.82;;;;;;;19.94;49.03;100818.78;5042698;28;20457;-27
2022/04/26 12:32:05;;;;;;;9.57;7.10;;;;;;;19.96;48.59;100828.47;5043886;28;20037;-27
2022/04/26 12:34:31;;;;;;;8.95;7.07;;;;;;;19.94;48.38;100825.00;5044216;28;20491;-27
2022/04/26 12:37:06;;;;;;;7.70;7.00;;;;;;;19.93;47.56;100819.69;5043447;28;20082;-27
2022/04/26 12:39:41;;;;;;;8.23;7.30;;;;;;;19.93;47.03;100823.25;5045401;28;20487;-28
2022/04/26 12:42:08;;;;;;;9.02;7.15;;;;;;;19.90;47.06;100814.53;5042674;28;20021;-27
2022/04/26 12:44:34;;;;;;;7.70;6.57;;;;;;;19.87;46.36;100811.03;5046614;28;20488;-27
2022/04/26 12:52:45;;;;;;;8.93;7.35;;;;;;;19.95;48.50;100812.50;5043949;28;20128;-27
2022/04/26 12:55:11;;;;;;;7.00;6.30;;;;;;;19.99;48.74;100806.03;5043328;28;20037;-27
2022/04/26 12:57:54;;;;;;;7.22;6.50;;;;;;;20.00;49.51;100806.00;5044384;28;20396;-27
2022/04/26 13:00:21;;;;;;;7.95;7.15;;;;;;;20.05;49.89;100803.13;5044585;28;20036;-27
2022/04/26 13:02:48;;;;;;;7.57;6.85;;;;;;;20.10;50.00;100803.78;5045657;28;20033;-27
2022/04/26 13:05:13;;;;;;;6.78;6.10;;;;;;;20.14;49.71;100804.47;5046106;28;20087;-27
2022/04/26 13:07:38;;;;;;;8.55;6.47;;;;;;;20.13;48.41;100803.63;5045676;28;20532;-27
2022/04/26 13:10:04;;;;;;;7.03;6.32;;;;;;;20.19;49.26;100796.22;5048252;28;20025;-27
2022/04/26 13:12:31;;;;;;;7.85;6.50;;;;;;;20.21;49.39;100802.41;5045293;28;20087;-27
2022/04/26 13:14:57;;;;;;;6.55;5.95;;;;;;;20.22;49.40;100796.09;5046773;28;20033;-27
2022/04/26 13:17:22;;;;;;;6.38;5.78;;;;;;;20.24;48.96;100802.25;5046343;28;20385;-27
2022/04/26 13:19:47;;;;;;;6.22;5.07;;;;;;;20.23;48.61;100801.38;5046219;28;20094;-27
2022/04/26 13:22:15;;;;;;;8.40;4.95;;;;;;;20.25;48.52;100795.94;5045226;28;20094;-27
2022/04/26 13:24:40;;;;;;;6.20;5.35;;;;;;;20.23;48.61;100792.47;5043441;28;20484;-27
2022/04/26 13:27:06;;;;;;;5.85;5.25;;;;;;;20.24;48.44;100802.25;5047127;28;20032;-27
2022/04/26 13:29:32;;;;;;;5.00;4.50;;;;;;;20.22;48.51;100799.66;5044588;28;20032;-27
2022/04/26 13:31:58;;;;;;;5.85;5.25;;;;;;;20.25;48.42;100793.28;5046233;28;20396;-27
2022/04/26 13:34:23;;;;;;;4.93;4.53;;;;;;;20.25;48.29;100791.44;5028570;28;20074;-27
2022/04/26 13:36:49;;;;;;;5.20;4.53;;;;;;;20.25;48.69;100798.63;5046921;28;20032;-27
2022/04/26 13:39:14;;;;;;;5.35;4.95;;;;;;;20.28;48.83;100800.28;5044174;28;20044;-27
2022/04/26 13:41:40;;;;;;;4.85;4.45;;;;;;;20.29;49.05;100797.53;5046535;28;20063;-27
2022/04/26 13:44:05;;;;;;;5.22;4.82;;;;;;;20.30;48.96;100798.41;5045472;28;20109;-27
2022/04/26 13:46:30;;;;;;;5.22;4.55;;;;;;;20.28;48.52;100790.44;5045893;28;20128;-27
2022/04/26 13:48:56;;;;;;;5.85;4.60;;;;;;;20.27;48.13;100788.69;5045396;28;20100;-27
2022/04/26 13:51:24;;;;;;;5.20;4.70;;;;;;;20.27;47.83;100783.34;5044767;28;20021;-27
2022/04/26 13:53:50;;;;;;;5.03;4.53;;;;;;;20.22;47.13;100788.06;5043394;28;20025;-27
2022/04/26 13:56:15;;;;;;;4.57;4.18;;;;;;;20.19;47.34;100785.53;5046883;28;20031;-27
2022/04/26 13:58:41;;;;;;;4.97;4.40;;;;;;;20.13;46.17;100786.69;5045526;28;20025;-27
2022/04/26 14:01:06;;;;;;;4.93;4.30;;;;;;;20.10;46.07;100787.69;5045188;28;20046;-27
2022/04/26 14:03:32;;;;;;;4.28;3.88;;;;;;;20.06;46.07;100783.44;5043751;28;20021;-27
2022/04/26 14:05:58;;;;;;;4.53;3.90;;;;;;;20.02;45.80;100795.25;5042147;28;20025;-27
2022/04/26 14:08:23;;;;;;;4.20;3.72;;;;;;;19.99;45.60;100784.63;5040310;28;20041;-27
2022/04/26 14:10:49;;;;;;;4.75;4.35;;;;;;;19.96;45.71;100790.13;5041701;28;20071;-27
2022/04/26 14:13:14;;;;;;;3.90;3.60;;;;;;;19.94;45.48;100789.34;5030241;28;20580;-27
2022/04/26 14:23:51;;;;;;;4.97;4.03;;;;;;;19.96;47.37;100790.13;5048042;28;20094;-27
2022/04/26 14:26:17;;;;;;;4.25;3.95;;;;;;;19.97;48.22;100781.16;5048210;28;20029;-27
2022/04/26 14:28:44;;;;;;;4.40;4.00;;;;;;;19.97;48.58;100784.69;5048438;28;20069;-27
2022/04/26 14:31:09;;;;;;;5.00;4.35;;;;;;;20.01;48.52;100785.47;5045977;28;20021;-27
2022/04/26 14:33:34;;;;;;;4.53;4.13;;;;;;;20.00;47.51;100786.41;5047923;28;20079;-27
2022/04/26 14:36:01;;;;;;;4.55;4.15;;;;;;;20.00;47.69;100783.72;5043080;28;20395;-27
2022/04/26 14:38:27;;;;;;;4.88;4.20;;;;;;;20.07;47.60;100782.50;5044310;28;20040;-27
2022/04/26 14:40:53;;;;;;;4.80;4.30;;;;;;;20.16;47.82;100791.03;5049382;28;20052;-27
2022/04/26 14:43:18;;;;;;;4.63;4.22;;;;;;;20.22;48.38;100785.38;5050470;28;20079;-27
2022/04/26 14:45:45;;;;;;;4.22;3.83;;;;;;;20.28;48.05;100782.41;5045362;28;20025;-27
2022/04/26 14:48:11;;;;;;;4.50;4.10;;;;;;;20.36;49.00;100782.03;5049677;28;20028;-27
2022/04/26 14:50:38;;;;;;;6.45;4.32;;;;;;;20.44;47.96;100779.84;5046529;28;20055;-27
2022/04/26 14:53:03;;;;;;;4.97;4.47;;;;;;;20.48;47.58;100781.41;5048246;28;20033;-27
2022/04/26 14:55:29;;;;;;;4.55;4.15;;;;;;;20.60;46.88;100788.00;5048113;28;20028;-27
2022/04/26 14:57:54;;;;;;;4.50;3.85;;;;;;;20.71;47.43;100782.09;5048204;28;20544;-27
2022/04/26 15:00:19;;;;;;;3.83;3.45;;;;;;;20.78;47.81;100788.03;5043703;28;20044;-27
2022/04/26 15:02:45;;;;;;;3.72;3.42;;;;;;;20.83;46.53;100790.44;5043702;28;20037;-27
2022/04/26 15:05:11;;;;;;;3.55;3.20;;;;;;;20.86;45.87;100790.31;5047833;28;20036;-27
2022/04/26 15:10:22;;;;;;;3.78;3.47;;;;;;;20.79;44.80;100787.06;5047542;28;20542;-27
2022/04/26 15:18:17;;;;;;;3.65;3.35;;;;;;;20.60;44.33;100798.72;5048443;28;20056;-27
2022/04/26 15:20:45;;;;;;;3.38;3.15;;;;;;;20.54;44.03;100796.31;5046053;28;20032;-27
2022/04/26 15:23:10;;;;;;;4.68;3.50;;;;;;;20.47;44.34;100794.91;5046470;28;20098;-27
2022/04/26 15:25:36;;;;;;;3.63;3.35;;;;;;;20.40;44.01;100799.69;5046758;28;20024;-27
2022/04/26 15:28:03;;;;;;;5.05;3.35;;;;;;;20.32;44.40;100805.44;5046263;28;20465;-27
2022/04/26 15:30:28;;;;;;;3.63;3.33;;;;;;;20.26;44.36;100800.34;5047273;28;20260;-27
2022/04/26 15:32:53;;;;;;;5.00;4.55;;;;;;;20.20;44.51;100803.31;5043949;28;20481;-28
2022/04/26 15:35:19;;;;;;;5.47;4.97;;;;;;;20.12;44.60;100796.53;5048731;28;20039;-27
2022/04/26 15:37:44;;;;;;;5.78;5.18;;;;;;;20.05;44.29;100797.78;5046310;28;20120;-27
2022/04/26 15:40:11;;;;;;;4.63;4.22;;;;;;;19.96;44.44;100801.72;5047485;28;20420;-27
2022/04/26 15:42:36;;;;;;;6.57;4.45;;;;;;;19.91;44.73;100802.88;5047159;28;20032;-27